Time;durP1;ratioP1;P1;durP2;ratioP2;P2;SDS_P1;SDS_P2;PMS_P1;PMS_P2;Temp;Humidity;BMP_temperature;BMP_pressure;BME280_temperature;BME280_humidity;BME280_pressure;Samples;Min_cycle;Max_cycle;Signal;HPM_P1;HPM_P2
2022/01/25 00:15:07;;;;;;;31.30;15.07;;;;;;;;;;5069639;28;20059;-75
2022/01/25 00:26:35;;;;;;;29.47;15.47;;;;;;;;;;5070182;28;20035;-75
2022/01/25 00:31:35;;;;;;;32.42;15.68;;;;;;;;;;5069732;28;20073;-75
2022/01/25 00:34:00;;;;;;;32.13;17.00;;;;;;;;;;5069329;28;20032;-74
2022/01/25 00:36:27;;;;;;;29.27;16.00;;;;;;;;;;5069114;28;20025;-74
2022/01/25 00:38:55;;;;;;;29.77;15.73;;;;;;;;;;5067641;28;20500;-74
2022/01/25 00:41:22;;;;;;;31.97;16.27;;;;;;;;;;5069137;28;20031;-74
2022/01/25 00:43:48;;;;;;;29.47;14.97;;;;;;;;;;5068955;28;20107;-73
2022/01/25 00:46:15;;;;;;;29.63;16.17;;;;;;;;;;5068902;28;20020;-75
2022/01/25 00:48:49;;;;;;;45.17;18.07;;;;;;;;;;5067659;28;20016;-72
2022/01/25 00:54:03;;;;;;;29.47;14.60;;;;;;;;;;5069573;28;20125;-74
2022/01/25 00:56:31;;;;;;;31.90;16.00;;;;;;;;;;5068731;28;20349;-74
2022/01/25 00:58:59;;;;;;;27.27;15.17;;;;;;;;;;5068995;28;20361;-74
2022/01/25 01:01:26;;;;;;;30.80;15.10;;;;;;;;;;5069070;28;20046;-73
2022/01/25 01:03:52;;;;;;;26.90;15.40;;;;;;;;;;5067679;28;20468;-74
2022/01/25 01:06:18;;;;;;;32.27;16.23;;;;;;;;;;5067285;28;20134;-74
2022/01/25 01:08:45;;;;;;;29.87;14.20;;;;;;;;;;5067473;28;20028;-75
2022/01/25 01:11:16;;;;;;;29.57;15.50;;;;;;;;;;5068961;28;20147;-74
2022/01/25 01:16:49;;;;;;;26.07;12.93;;;;;;;;;;5068891;28;20025;-74
2022/01/25 01:30:33;;;;;;;17.43;9.67;;;;;;;;;;5068839;28;20074;-74
2022/01/25 01:38:44;;;;;;;21.80;9.73;;;;;;;;;;5068704;28;20048;-73
2022/01/25 01:43:33;;;;;;;16.70;8.67;;;;;;;;;;5068814;28;20044;-73
2022/01/25 01:48:42;;;;;;;14.43;8.57;;;;;;;;;;5068806;28;20035;-73
2022/01/25 01:51:17;;;;;;;15.63;9.27;;;;;;;;;;5066926;28;20017;-74
2022/01/25 01:53:43;;;;;;;14.93;8.83;;;;;;;;;;5051607;28;20070;-74
2022/01/25 01:56:09;;;;;;;15.23;8.03;;;;;;;;;;5068185;28;20047;-74
2022/01/25 01:58:35;;;;;;;21.13;9.47;;;;;;;;;;5066914;28;20477;-73
2022/01/25 02:01:03;;;;;;;14.50;9.67;;;;;;;;;;5068630;28;20124;-72
2022/01/25 02:03:28;;;;;;;13.93;8.90;;;;;;;;;;5069482;28;20392;-73
2022/01/25 02:05:54;;;;;;;15.87;9.13;;;;;;;;;;5068794;28;20104;-73
2022/01/25 02:08:19;;;;;;;13.77;9.43;;;;;;;;;;5069811;28;20032;-74
2022/01/25 02:10:45;;;;;;;17.00;9.77;;;;;;;;;;5070384;28;20032;-74
2022/01/25 02:13:12;;;;;;;20.13;9.60;;;;;;;;;;5070063;28;20032;-74
2022/01/25 02:15:43;;;;;;;18.23;9.70;;;;;;;;;;5071796;28;20055;-74
2022/01/25 02:23:36;;;;;;;18.77;10.07;;;;;;;;;;5071951;28;20047;-74
2022/01/25 02:26:04;;;;;;;15.73;9.10;;;;;;;;;;5071297;28;20082;-73
2022/01/25 02:28:36;;;;;;;16.57;9.57;;;;;;;;;;5070234;28;20020;-73
2022/01/25 02:31:03;;;;;;;18.65;10.48;;;;;;;;;;5070629;28;20027;-73
2022/01/25 02:33:28;;;;;;;19.60;9.20;;;;;;;;;;5071815;28;20033;-74
2022/01/25 02:35:55;;;;;;;16.77;9.47;;;;;;;;;;5071399;28;20126;-73
2022/01/25 02:38:26;;;;;;;18.03;9.73;;;;;;;;;;5069624;28;20036;-73
2022/01/25 02:40:52;;;;;;;16.13;9.00;;;;;;;;;;5071293;28;20099;-72
2022/01/25 02:43:20;;;;;;;20.03;10.00;;;;;;;;;;5069798;28;20055;-74
2022/01/25 02:48:55;;;;;;;20.10;9.97;;;;;;;;;;5071406;28;20059;-74
2022/01/25 02:51:32;;;;;;;16.50;8.77;;;;;;;;;;5071122;28;20016;-74
2022/01/25 02:53:58;;;;;;;12.87;7.47;;;;;;;;;;5071506;28;20028;-74
2022/01/25 02:56:25;;;;;;;11.20;7.70;;;;;;;;;;5071031;28;20071;-73
2022/01/25 02:58:51;;;;;;;16.03;8.17;;;;;;;;;;5069617;28;20036;-73
2022/01/25 03:01:18;;;;;;;12.53;7.33;;;;;;;;;;5069432;28;20528;-74
2022/01/25 03:03:44;;;;;;;16.57;9.13;;;;;;;;;;5069787;28;20154;-74
2022/01/25 03:06:14;;;;;;;15.77;9.80;;;;;;;;;;5069391;28;20024;-76
2022/01/25 03:08:40;;;;;;;16.90;8.43;;;;;;;;;;5070952;28;20390;-75
2022/01/25 03:11:05;;;;;;;17.70;9.40;;;;;;;;;;5070857;28;20119;-73
2022/01/25 03:13:36;;;;;;;14.27;6.90;;;;;;;;;;5069412;28;20051;-73
2022/01/25 03:16:17;;;;;;;14.83;7.80;;;;;;;;;;5069261;28;20024;-74
2022/01/25 03:18:46;;;;;;;12.27;7.23;;;;;;;;;;5070365;28;20260;-72
2022/01/25 03:23:42;;;;;;;14.47;7.27;;;;;;;;;;5070874;28;20047;-73
2022/01/25 03:26:08;;;;;;;14.10;7.63;;;;;;;;;;5070512;28;20028;-73
2022/01/25 03:28:34;;;;;;;17.53;8.47;;;;;;;;;;5070380;28;20020;-72
2022/01/25 03:31:00;;;;;;;16.27;8.50;;;;;;;;;;5068978;28;20223;-73
2022/01/25 03:33:25;;;;;;;13.40;8.43;;;;;;;;;;5070291;28;20028;-74
2022/01/25 03:35:51;;;;;;;18.00;9.63;;;;;;;;;;5070171;28;20021;-74
2022/01/25 03:38:18;;;;;;;15.10;9.30;;;;;;;;;;5069785;28;20059;-73
2022/01/25 03:40:45;;;;;;;13.77;8.37;;;;;;;;;;5069900;28;20020;-74
2022/01/25 03:43:13;;;;;;;17.40;8.73;;;;;;;;;;5068400;28;20493;-74
2022/01/25 03:45:41;;;;;;;14.90;8.40;;;;;;;;;;5069976;28;20052;-74
2022/01/25 03:50:35;;;;;;;15.50;8.23;;;;;;;;;;5070261;28;20055;-73
2022/01/25 03:53:01;;;;;;;16.03;8.90;;;;;;;;;;5069831;28;20456;-74
2022/01/25 03:55:26;;;;;;;14.13;8.00;;;;;;;;;;5069538;28;20024;-74
2022/01/25 03:57:52;;;;;;;16.00;8.50;;;;;;;;;;5069964;28;20044;-74
2022/01/25 04:00:18;;;;;;;15.53;8.37;;;;;;;;;;5068256;28;20035;-74
2022/01/25 04:02:58;;;;;;;14.13;7.43;;;;;;;;;;5069687;28;20538;-74
2022/01/25 04:05:35;;;;;;;14.53;7.70;;;;;;;;;;5068084;28;20035;-73
2022/01/25 04:08:03;;;;;;;9.87;6.50;;;;;;;;;;5068333;28;20063;-74
2022/01/25 04:10:28;;;;;;;13.63;7.40;;;;;;;;;;5069616;28;20020;-73
2022/01/25 04:12:54;;;;;;;16.90;8.67;;;;;;;;;;5068024;28;20127;-73
2022/01/25 04:15:20;;;;;;;11.80;7.40;;;;;;;;;;5069127;28;20040;-73
2022/01/25 04:17:50;;;;;;;14.30;8.50;;;;;;;;;;5069485;28;20016;-73
2022/01/25 04:20:30;;;;;;;12.23;6.53;;;;;;;;;;5068030;28;20025;-73
2022/01/25 04:25:40;;;;;;;10.97;6.07;;;;;;;;;;5069500;28;20368;-74
2022/01/25 04:28:05;;;;;;;11.93;6.17;;;;;;;;;;5068372;28;20028;-74
2022/01/25 04:30:31;;;;;;;12.60;6.53;;;;;;;;;;5067657;28;20476;-73
2022/01/25 04:33:03;;;;;;;11.47;6.83;;;;;;;;;;5070778;28;20047;-73
2022/01/25 04:49:10;;;;;;;14.70;6.77;;;;;;;;;;5069245;28;20039;-73
2022/01/25 04:52:23;;;;;;;12.00;6.83;;;;;;;;;;5067807;28;20506;-73
2022/01/25 04:57:39;;;;;;;16.53;6.60;;;;;;;;;;5069175;28;20035;-73
2022/01/25 05:00:22;;;;;;;13.03;6.43;;;;;;;;;;5067630;28;20043;-73
2022/01/25 05:02:53;;;;;;;;;;;;;;;;;;5067943;28;20021;-74
2022/01/25 05:05:34;;;;;;;17.83;6.90;;;;;;;;;;5067569;28;19915;-73
2022/01/25 05:08:06;;;;;;;17.37;6.63;;;;;;;;;;5068956;28;20039;-73
2022/01/25 05:10:37;;;;;;;13.57;5.93;;;;;;;;;;5067256;28;20024;-74
2022/01/25 05:13:18;;;;;;;10.83;6.10;;;;;;;;;;5067203;28;20056;-73
2022/01/25 05:18:20;;;;;;;13.83;6.77;;;;;;;;;;5068765;28;20060;-74
2022/01/25 05:23:30;;;;;;;11.23;6.87;;;;;;;;;;5068854;28;20048;-73
2022/01/25 05:25:55;;;;;;;12.10;6.80;;;;;;;;;;5067375;28;20427;-74
2022/01/25 05:28:21;;;;;;;15.27;6.80;;;;;;;;;;5068714;28;20028;-74
2022/01/25 05:30:47;;;;;;;20.47;7.93;;;;;;;;;;5067636;28;20491;-73
2022/01/25 05:33:13;;;;;;;9.23;5.67;;;;;;;;;;5067150;28;20115;-74
2022/01/25 05:35:38;;;;;;;11.37;6.90;;;;;;;;;;5067117;28;20032;-74
2022/01/25 05:38:04;;;;;;;15.43;6.67;;;;;;;;;;5066829;28;20052;-74
2022/01/25 05:40:45;;;;;;;13.50;6.47;;;;;;;;;;5067149;28;20028;-75
2022/01/25 05:48:26;;;;;;;13.87;7.40;;;;;;;;;;5072620;28;20460;-74
2022/01/25 05:50:53;;;;;;;13.90;6.70;;;;;;;;;;5069713;28;20036;-73
2022/01/25 05:53:18;;;;;;;15.50;7.23;;;;;;;;;;5070604;28;20055;-73
2022/01/25 05:55:44;;;;;;;11.73;6.73;;;;;;;;;;5071728;28;20063;-74
2022/01/25 05:58:10;;;;;;;9.53;5.53;;;;;;;;;;5071755;28;20029;-74
2022/01/25 06:00:35;;;;;;;12.57;6.70;;;;;;;;;;5070010;28;20267;-74
2022/01/25 06:03:04;;;;;;;11.43;6.40;;;;;;;;;;5071647;28;20036;-73
2022/01/25 06:05:29;;;;;;;12.27;6.27;;;;;;;;;;5071356;28;20070;-74
2022/01/25 06:07:55;;;;;;;15.33;6.70;;;;;;;;;;5067548;28;20055;-75
2022/01/25 06:10:20;;;;;;;12.23;6.43;;;;;;;;;;5074097;28;20028;-75
2022/01/25 06:12:46;;;;;;;15.20;6.97;;;;;;;;;;5063737;28;20103;-74
2022/01/25 06:15:12;;;;;;;14.67;6.50;;;;;;;;;;5080999;28;20039;-74
2022/01/25 06:17:38;;;;;;;12.93;6.20;;;;;;;;;;5076428;28;20027;-73
2022/01/25 06:20:05;;;;;;;15.70;6.53;;;;;;;;;;5072342;28;20028;-75
2022/01/25 06:22:31;;;;;;;10.67;6.80;;;;;;;;;;5055546;28;20036;-75
2022/01/25 06:24:56;;;;;;;12.27;5.93;;;;;;;;;;5072027;28;20024;-74
2022/01/25 06:27:22;;;;;;;12.10;6.53;;;;;;;;;;5051740;28;20117;-74
2022/01/25 06:29:48;;;;;;;13.73;5.70;;;;;;;;;;5073547;28;20146;-74
2022/01/25 06:32:14;;;;;;;13.57;6.03;;;;;;;;;;5052313;28;20053;-74
2022/01/25 06:34:40;;;;;;;15.60;6.47;;;;;;;;;;5050756;28;20070;-74
2022/01/25 06:37:06;;;;;;;15.60;7.23;;;;;;;;;;5066822;28;20462;-74
2022/01/25 06:39:31;;;;;;;10.90;6.40;;;;;;;;;;5066901;28;20660;-74
2022/01/25 06:41:57;;;;;;;13.50;6.93;;;;;;;;;;5065925;28;20033;-75
2022/01/25 06:44:23;;;;;;;15.80;7.80;;;;;;;;;;5065774;28;20123;-75
2022/01/25 06:46:48;;;;;;;13.20;6.80;;;;;;;;;;5050342;28;20029;-74
2022/01/25 06:49:15;;;;;;;13.37;7.23;;;;;;;;;;5050558;28;20029;-73
2022/01/25 06:51:41;;;;;;;13.07;6.70;;;;;;;;;;5050474;28;20027;-74
2022/01/25 06:54:08;;;;;;;11.97;6.90;;;;;;;;;;5050139;28;20083;-75
2022/01/25 06:56:34;;;;;;;14.53;7.30;;;;;;;;;;5065760;28;20033;-75
2022/01/25 06:58:59;;;;;;;16.50;8.20;;;;;;;;;;5050918;28;20091;-75
2022/01/25 07:01:25;;;;;;;20.90;9.13;;;;;;;;;;5050626;28;20465;-74
2022/01/25 07:03:51;;;;;;;15.63;8.23;;;;;;;;;;5066823;28;20421;-73
2022/01/25 07:06:17;;;;;;;17.10;7.67;;;;;;;;;;5055154;28;20033;-73
2022/01/25 07:08:44;;;;;;;14.27;6.90;;;;;;;;;;5049320;28;20074;-74
2022/01/25 07:11:11;;;;;;;17.17;7.70;;;;;;;;;;5049964;28;20025;-75
2022/01/25 07:13:36;;;;;;;11.70;6.70;;;;;;;;;;5047826;28;20081;-75
2022/01/25 07:16:02;;;;;;;13.00;6.40;;;;;;;;;;5049743;28;20036;-75
2022/01/25 07:18:28;;;;;;;16.93;7.83;;;;;;;;;;5055748;28;20024;-74
2022/01/25 07:20:53;;;;;;;12.27;5.93;;;;;;;;;;5084078;28;20139;-75
2022/01/25 07:23:19;;;;;;;10.10;5.70;;;;;;;;;;5081651;28;20040;-74
2022/01/25 07:25:44;;;;;;;10.40;5.43;;;;;;;;;;5073654;28;20017;-75
2022/01/25 07:28:10;;;;;;;10.63;6.10;;;;;;;;;;5084633;28;20054;-73
2022/01/25 07:30:35;;;;;;;12.10;6.20;;;;;;;;;;5089016;28;20148;-74
2022/01/25 07:33:05;;;;;;;16.23;6.40;;;;;;;;;;5081184;28;20035;-74
2022/01/25 07:35:32;;;;;;;14.13;7.17;;;;;;;;;;5081406;28;20031;-74
2022/01/25 07:37:58;;;;;;;12.03;6.10;;;;;;;;;;5072920;28;20068;-75
2022/01/25 07:40:23;;;;;;;13.23;6.47;;;;;;;;;;5085510;28;20063;-74
2022/01/25 07:42:50;;;;;;;13.80;6.37;;;;;;;;;;5073935;28;20135;-75
2022/01/25 07:45:16;;;;;;;14.23;7.27;;;;;;;;;;5078041;28;20066;-74
2022/01/25 07:47:42;;;;;;;11.73;5.97;;;;;;;;;;5080423;28;20027;-75
2022/01/25 07:50:09;;;;;;;14.87;7.13;;;;;;;;;;5071768;28;20033;-76
2022/01/25 07:52:36;;;;;;;12.17;6.37;;;;;;;;;;5082293;28;20016;-75
2022/01/25 07:55:03;;;;;;;15.17;6.97;;;;;;;;;;5076729;28;20103;-74
2022/01/25 07:57:28;;;;;;;15.27;7.47;;;;;;;;;;5085712;28;20028;-74
2022/01/25 07:59:55;;;;;;;15.67;7.50;;;;;;;;;;5073261;28;20569;-74
2022/01/25 08:02:20;;;;;;;13.73;8.13;;;;;;;;;;5085676;28;20020;-74
2022/01/25 08:04:46;;;;;;;18.70;8.03;;;;;;;;;;5071848;28;20376;-75
2022/01/25 08:07:12;;;;;;;18.90;8.33;;;;;;;;;;5078648;28;20032;-75
2022/01/25 08:09:38;;;;;;;16.13;8.47;;;;;;;;;;5080661;28;20024;-73
2022/01/25 08:12:04;;;;;;;16.77;7.50;;;;;;;;;;5070670;28;20111;-73
2022/01/25 08:14:30;;;;;;;17.23;8.10;;;;;;;;;;5055252;28;20027;-74
2022/01/25 08:16:56;;;;;;;16.57;8.37;;;;;;;;;;5074455;28;20020;-75
2022/01/25 08:19:22;;;;;;;20.53;9.73;;;;;;;;;;5068071;28;20194;-74
2022/01/25 08:21:48;;;;;;;21.57;9.13;;;;;;;;;;5082301;28;20114;-74
2022/01/25 08:24:18;;;;;;;19.27;8.63;;;;;;;;;;5068525;28;20028;-74
2022/01/25 08:26:44;;;;;;;18.63;9.57;;;;;;;;;;5067557;28;20036;-74
2022/01/25 08:29:10;;;;;;;16.87;8.83;;;;;;;;;;5076704;28;20026;-74
2022/01/25 08:31:38;;;;;;;20.40;8.93;;;;;;;;;;5082545;28;20099;-74
2022/01/25 08:34:04;;;;;;;21.57;8.77;;;;;;;;;;5079324;28;20511;-74
2022/01/25 08:36:30;;;;;;;16.70;8.50;;;;;;;;;;5083986;28;20060;-75
2022/01/25 08:38:56;;;;;;;20.97;9.73;;;;;;;;;;5074990;28;20506;-73
2022/01/25 08:41:22;;;;;;;18.93;9.90;;;;;;;;;;5076269;28;20059;-75
2022/01/25 08:43:48;;;;;;;20.90;9.50;;;;;;;;;;5073873;28;20292;-73
2022/01/25 08:46:14;;;;;;;42.97;24.30;;;;;;;;;;5082331;28;20035;-72
2022/01/25 08:48:40;;;;;;;22.27;10.60;;;;;;;;;;5071348;28;20047;-71
2022/01/25 08:51:06;;;;;;;20.83;10.50;;;;;;;;;;5086258;28;20464;-73
2022/01/25 08:53:33;;;;;;;22.97;10.63;;;;;;;;;;5073809;28;20025;-72
2022/01/25 08:55:58;;;;;;;20.90;9.13;;;;;;;;;;5081915;28;20189;-72
2022/01/25 08:58:24;;;;;;;26.13;10.47;;;;;;;;;;5065637;28;20111;-72
2022/01/25 09:00:49;;;;;;;22.37;11.40;;;;;;;;;;5072806;28;20460;-73
2022/01/25 09:03:15;;;;;;;18.93;9.07;;;;;;;;;;5076940;28;20058;-71
2022/01/25 09:05:41;;;;;;;19.73;8.93;;;;;;;;;;5095043;28;20054;-72
2022/01/25 09:08:06;;;;;;;22.90;9.97;;;;;;;;;;5068320;28;20031;-73
2022/01/25 09:10:33;;;;;;;48.30;13.00;;;;;;;;;;5082949;28;20032;-71
2022/01/25 09:12:59;;;;;;;29.13;11.33;;;;;;;;;;5070689;28;20517;-73
2022/01/25 09:15:24;;;;;;;22.43;9.83;;;;;;;;;;5067576;28;20033;-72
2022/01/25 09:17:50;;;;;;;23.83;10.60;;;;;;;;;;5084492;28;20110;-70
2022/01/25 09:20:16;;;;;;;22.03;10.67;;;;;;;;;;5072767;28;20078;-71
2022/01/25 09:22:41;;;;;;;19.67;9.43;;;;;;;;;;5085446;28;20047;-72
2022/01/25 09:25:09;;;;;;;17.63;9.13;;;;;;;;;;5070669;28;20029;-72
2022/01/25 09:27:34;;;;;;;21.13;9.47;;;;;;;;;;5081988;28;20093;-71
2022/01/25 09:30:00;;;;;;;26.17;10.67;;;;;;;;;;5074983;28;20028;-71
2022/01/25 09:32:25;;;;;;;19.27;9.23;;;;;;;;;;5086024;28;20019;-72
2022/01/25 09:34:51;;;;;;;17.10;9.23;;;;;;;;;;5075808;28;20038;-72
2022/01/25 09:37:17;;;;;;;28.00;10.40;;;;;;;;;;5080521;28;20455;-74
2022/01/25 09:39:44;;;;;;;15.73;8.63;;;;;;;;;;5058826;28;20043;-74
2022/01/25 09:42:10;;;;;;;19.60;10.13;;;;;;;;;;5087419;28;20487;-73
2022/01/25 09:44:37;;;;;;;17.83;8.87;;;;;;;;;;5067127;28;20107;-71
2022/01/25 09:47:04;;;;;;;23.27;10.40;;;;;;;;;;5069868;28;20492;-72
2022/01/25 09:49:31;;;;;;;24.37;10.50;;;;;;;;;;5071010;28;20024;-72
2022/01/25 09:52:01;;;;;;;17.43;9.40;;;;;;;;;;5086361;28;20031;-72
2022/01/25 09:54:29;;;;;;;20.67;9.83;;;;;;;;;;5057339;28;20020;-74
2022/01/25 09:56:55;;;;;;;19.33;9.87;;;;;;;;;;5082460;28;20032;-71
2022/01/25 09:59:20;;;;;;;19.90;9.73;;;;;;;;;;5072999;28;20027;-71
2022/01/25 10:01:46;;;;;;;29.47;11.43;;;;;;;;;;5083978;28;20107;-72
2022/01/25 10:04:37;;;;;;;16.83;9.20;;;;;;;;;;5070847;28;20106;-73
2022/01/25 10:07:09;;;;;;;25.47;10.27;;;;;;;;;;5079157;28;20095;-74
2022/01/25 10:09:42;;;;;;;18.33;9.55;;;;;;;;;;5083171;28;20199;-73
2022/01/25 10:12:23;;;;;;;19.03;9.17;;;;;;;;;;5075645;28;20029;-72
2022/01/25 10:15:09;;;;;;;20.03;9.53;;;;;;;;;;5085987;28;20203;-72
2022/01/25 10:17:36;;;;;;;18.50;8.77;;;;;;;;;;5075796;28;20107;-73
2022/01/25 10:20:04;;;;;;;16.30;8.30;;;;;;;;;;5065713;28;20025;-72
2022/01/25 10:22:46;;;;;;;17.70;8.57;;;;;;;;;;5071701;28;20020;-73
2022/01/25 10:25:28;;;;;;;40.72;19.83;;;;;;;;;;5071077;28;20020;-73
2022/01/25 10:28:03;;;;;;;17.03;8.33;;;;;;;;;;5073172;28;20028;-72
2022/01/25 10:30:39;;;;;;;19.20;8.57;;;;;;;;;;5071037;28;20054;-74
2022/01/25 10:33:32;;;;;;;19.03;8.43;;;;;;;;;;5056044;28;20020;-72
2022/01/25 10:36:13;;;;;;;19.20;8.87;;;;;;;;;;5062337;28;20699;-72
2022/01/25 10:38:40;;;;;;;14.67;8.57;;;;;;;;;;5062494;28;20052;-74
2022/01/25 10:41:09;;;;;;;25.90;9.13;;;;;;;;;;5063492;28;20035;-73
2022/01/25 10:43:37;;;;;;;22.77;8.57;;;;;;;;;;5063932;28;20043;-74
2022/01/25 10:46:12;;;;;;;17.10;8.43;;;;;;;;;;5062799;28;20028;-71
2022/01/25 10:48:41;;;;;;;18.73;8.33;;;;;;;;;;5063257;28;20114;-72
2022/01/25 10:51:13;;;;;;;23.93;9.10;;;;;;;;;;5065172;28;20131;-71
2022/01/25 10:53:40;;;;;;;26.80;9.93;;;;;;;;;;5058500;28;20043;-73
2022/01/25 10:56:07;;;;;;;17.93;8.70;;;;;;;;;;5059601;28;20085;-72
2022/01/25 10:58:41;;;;;;;17.77;8.17;;;;;;;;;;5062313;28;20032;-72
2022/01/25 11:01:07;;;;;;;17.40;7.87;;;;;;;;;;5063782;28;20040;-72
2022/01/25 11:03:36;;;;;;;16.80;8.93;;;;;;;;;;5067211;28;20035;-75
2022/01/25 11:06:18;;;;;;;20.23;9.17;;;;;;;;;;5063799;28;20051;-73
2022/01/25 11:08:49;;;;;;;21.87;8.73;;;;;;;;;;5059762;28;20032;-75
2022/01/25 11:11:32;;;;;;;20.47;9.60;;;;;;;;;;5062108;28;20354;-72
2022/01/25 11:14:50;;;;;;;22.53;7.73;;;;;;;;;;5061785;28;20115;-71
2022/01/25 11:16:43;;;;;;;15.67;7.93;;;;;;;;;;5063262;28;20057;-73
2022/01/25 11:19:09;;;;;;;15.23;7.20;;;;;;;;;;5061418;28;20028;-74
2022/01/25 11:21:35;;;;;;;18.53;7.90;;;;;;;;;;5062005;28;20028;-73
2022/01/25 11:24:01;;;;;;;26.20;8.83;;;;;;;;;;5063709;28;20131;-74
2022/01/25 11:26:27;;;;;;;15.13;7.83;;;;;;;;;;5053965;28;20024;-73
2022/01/25 11:28:53;;;;;;;19.53;7.93;;;;;;;;;;5059707;28;20636;-73
2022/01/25 11:31:22;;;;;;;16.27;7.87;;;;;;;;;;5059926;28;20032;-72
2022/01/25 11:33:50;;;;;;;16.10;8.93;;;;;;;;;;5070838;28;20035;-72
2022/01/25 11:36:16;;;;;;;15.50;8.60;;;;;;;;;;5062292;28;20051;-72
2022/01/25 11:38:52;;;;;;;23.67;9.17;;;;;;;;;;5063346;28;20061;-74
2022/01/25 11:41:26;;;;;;;20.93;9.03;;;;;;;;;;5078967;28;20032;-73
2022/01/25 11:44:04;;;;;;;17.63;8.57;;;;;;;;;;5060159;28;20165;-73
2022/01/25 11:46:31;;;;;;;16.03;8.03;;;;;;;;;;5058301;28;20036;-73
2022/01/25 11:49:04;;;;;;;14.70;7.60;;;;;;;;;;5058880;28;20052;-70
2022/01/25 11:51:30;;;;;;;;;;;;;;;;;;5057846;28;20028;-71
2022/01/25 11:53:55;;;;;;;19.90;8.63;;;;;;;;;;5063183;28;19938;-73
2022/01/25 11:56:25;;;;;;;13.27;8.00;;;;;;;;;;5062927;28;21164;-73
2022/01/25 11:58:56;;;;;;;18.67;9.00;;;;;;;;;;5062028;28;20040;-74
2022/01/25 12:01:24;;;;;;;16.93;8.27;;;;;;;;;;5065083;28;20028;-76
2022/01/25 12:03:52;;;;;;;20.70;8.63;;;;;;;;;;5064452;28;20044;-73
2022/01/25 12:06:30;;;;;;;17.67;8.50;;;;;;;;;;5065714;28;20339;-74
2022/01/25 12:14:19;;;;;;;18.67;9.20;;;;;;;;;;5063416;28;20127;-72
2022/01/25 12:17:02;;;;;;;16.77;9.17;;;;;;;;;;5059552;28;20074;-72
2022/01/25 12:19:35;;;;;;;19.80;8.37;;;;;;;;;;5062479;28;20025;-73
2022/01/25 12:22:12;;;;;;;20.93;9.93;;;;;;;;;;5058823;28;20102;-72
2022/01/25 12:24:43;;;;;;;17.80;8.83;;;;;;;;;;5059962;28;20035;-72
2022/01/25 12:27:22;;;;;;;17.52;8.48;;;;;;;;;;5058579;28;20326;-72
2022/01/25 12:30:07;;;;;;;20.97;9.00;;;;;;;;;;5059907;28;20032;-73
2022/01/25 12:32:36;;;;;;;18.97;8.90;;;;;;;;;;5057516;28;20036;-72
2022/01/25 12:35:37;;;;;;;21.03;7.97;;;;;;;;;;5058520;28;20031;-73
2022/01/25 12:38:18;;;;;;;18.53;8.53;;;;;;;;;;5063792;28;20485;-71
2022/01/25 12:40:52;;;;;;;15.87;7.23;;;;;;;;;;5060099;28;20044;-73
2022/01/25 12:43:24;;;;;;;19.27;8.03;;;;;;;;;;5057800;28;20055;-71
2022/01/25 12:46:06;;;;;;;22.20;8.47;;;;;;;;;;5061889;28;20033;-72
2022/01/25 12:48:34;;;;;;;;;;;;;;;;;;5062495;28;20073;-74
2022/01/25 12:51:09;;;;;;;16.23;7.40;;;;;;;;;;5062851;28;19912;-73
2022/01/25 12:53:37;;;;;;;19.53;8.77;;;;;;;;;;5061654;28;20422;-72
2022/01/25 12:56:14;;;;;;;21.43;8.60;;;;;;;;;;5060646;28;20051;-71
2022/01/25 12:58:40;;;;;;;15.47;8.20;;;;;;;;;;5064922;28;20127;-74
2022/01/25 13:01:10;;;;;;;18.83;7.70;;;;;;;;;;5058182;28;20116;-72
2022/01/25 13:03:43;;;;;;;20.53;7.77;;;;;;;;;;5062486;28;20101;-73
2022/01/25 13:06:18;;;;;;;17.33;7.77;;;;;;;;;;5061590;28;20032;-72
2022/01/25 13:09:09;;;;;;;15.40;7.53;;;;;;;;;;5057771;28;20044;-74
2022/01/25 13:14:51;;;;;;;17.10;8.57;;;;;;;;;;5061780;28;20072;-75
2022/01/25 13:17:23;;;;;;;24.77;7.97;;;;;;;;;;5070233;28;20068;-73
2022/01/25 13:19:51;;;;;;;18.67;8.57;;;;;;;;;;5076687;28;20029;-74
2022/01/25 13:22:27;;;;;;;15.20;7.80;;;;;;;;;;5059115;28;20131;-73
2022/01/25 13:27:48;;;;;;;21.63;9.67;;;;;;;;;;5056702;28;20369;-72
2022/01/25 13:33:06;;;;;;;13.63;7.33;;;;;;;;;;5058737;28;20101;-73
2022/01/25 13:35:36;;;;;;;15.80;8.07;;;;;;;;;;5057918;28;20071;-73
2022/01/25 13:38:09;;;;;;;13.63;8.43;;;;;;;;;;5059199;28;20052;-72
2022/01/25 13:40:51;;;;;;;26.80;9.63;;;;;;;;;;5059935;28;20048;-72
2022/01/25 13:46:10;;;;;;;20.77;11.07;;;;;;;;;;5058636;28;20032;-72
2022/01/25 13:48:37;;;;;;;51.53;13.13;;;;;;;;;;5057671;28;20926;-74
2022/01/25 13:51:14;;;;;;;15.30;7.37;;;;;;;;;;5056613;28;20433;-71
2022/01/25 13:53:48;;;;;;;18.73;7.87;;;;;;;;;;5058586;28;20457;-71
2022/01/25 13:56:16;;;;;;;15.50;7.20;;;;;;;;;;5059873;28;20054;-73
2022/01/25 13:58:47;;;;;;;15.60;6.37;;;;;;;;;;5058949;28;20059;-74
2022/01/25 14:01:14;;;;;;;15.80;7.23;;;;;;;;;;5058998;28;20556;-74
2022/01/25 14:03:44;;;;;;;12.10;7.10;;;;;;;;;;5061799;28;20119;-73
2022/01/25 14:06:28;;;;;;;12.17;6.93;;;;;;;;;;5056876;28;20036;-75
2022/01/25 14:09:12;;;;;;;13.40;6.77;;;;;;;;;;5061608;28;20157;-72
2022/01/25 14:23:22;;;;;;;11.97;7.30;;;;;;;;;;5063250;28;20051;-72
2022/01/25 14:25:32;;;;;;;13.33;7.33;;;;;;;;;;5062372;28;20063;-76
2022/01/25 14:28:15;;;;;;;11.07;6.63;;;;;;;;;;5060761;28;20055;-72
2022/01/25 14:30:43;;;;;;;15.13;6.18;;;;;;;;;;5062213;28;20055;-73
2022/01/25 14:33:15;;;;;;;11.40;6.03;;;;;;;;;;5062399;28;20563;-72
2022/01/25 14:35:56;;;;;;;12.48;6.63;;;;;;;;;;5074887;28;20032;-76
2022/01/25 14:38:41;;;;;;;10.43;5.67;;;;;;;;;;5062116;28;20045;-74
2022/01/25 14:41:12;;;;;;;15.27;7.73;;;;;;;;;;5063637;28;20073;-73
2022/01/25 14:43:45;;;;;;;22.58;8.38;;;;;;;;;;5059234;28;21192;-74
2022/01/25 14:46:34;;;;;;;18.10;7.83;;;;;;;;;;5061919;28;20130;-72
2022/01/25 14:49:13;;;;;;;15.33;6.73;;;;;;;;;;5080190;28;20211;-72
2022/01/25 14:51:48;;;;;;;16.60;8.20;;;;;;;;;;5064972;28;20033;-74
2022/01/25 14:54:18;;;;;;;15.70;7.10;;;;;;;;;;5063342;28;20189;-72
2022/01/25 14:56:49;;;;;;;13.67;7.67;;;;;;;;;;5062821;28;20045;-73
2022/01/25 14:59:27;;;;;;;20.77;9.07;;;;;;;;;;5066152;28;20344;-73
2022/01/25 15:02:11;;;;;;;16.43;8.20;;;;;;;;;;5065066;28;20040;-72
2022/01/25 15:04:39;;;;;;;17.07;7.83;;;;;;;;;;5073848;28;20121;-72
2022/01/25 15:07:33;;;;;;;12.97;7.87;;;;;;;;;;5068816;28;20115;-72
2022/01/25 15:10:03;;;;;;;29.80;11.03;;;;;;;;;;5082035;28;20043;-72
2022/01/25 15:12:49;;;;;;;17.57;8.47;;;;;;;;;;5070521;28;20036;-72
2022/01/25 15:15:26;;;;;;;12.53;7.43;;;;;;;;;;5085139;28;20044;-73
2022/01/25 15:17:52;;;;;;;15.40;7.53;;;;;;;;;;5068119;28;20492;-72
2022/01/25 15:20:18;;;;;;;16.07;8.77;;;;;;;;;;5070238;28;20035;-72
2022/01/25 15:22:47;;;;;;;21.30;8.10;;;;;;;;;;5062614;28;20032;-71
2022/01/25 15:25:20;;;;;;;18.00;9.60;;;;;;;;;;5078258;28;20416;-73
2022/01/25 15:27:47;;;;;;;15.50;7.43;;;;;;;;;;5075727;28;20039;-72
2022/01/25 15:30:13;;;;;;;23.83;8.73;;;;;;;;;;5081899;28;20035;-71
2022/01/25 15:32:38;;;;;;;19.90;9.37;;;;;;;;;;5080687;28;20113;-74
2022/01/25 15:35:05;;;;;;;13.70;8.93;;;;;;;;;;5068195;28;20036;-72
2022/01/25 15:37:31;;;;;;;12.97;7.83;;;;;;;;;;5068765;28;20430;-71
2022/01/25 15:39:57;;;;;;;14.33;8.67;;;;;;;;;;5080927;28;20032;-73
2022/01/25 15:42:25;;;;;;;21.77;9.53;;;;;;;;;;5059115;28;20078;-71
2022/01/25 15:44:52;;;;;;;14.30;8.10;;;;;;;;;;5076292;28;20028;-74
2022/01/25 15:47:19;;;;;;;13.73;7.40;;;;;;;;;;5084838;28;20035;-72
2022/01/25 15:49:46;;;;;;;25.00;9.87;;;;;;;;;;5077766;28;20035;-71
2022/01/25 15:52:13;;;;;;;13.13;7.07;;;;;;;;;;5072346;28;20117;-72
2022/01/25 15:54:40;;;;;;;16.63;7.87;;;;;;;;;;5070494;28;20051;-73
2022/01/25 15:57:07;;;;;;;11.90;7.33;;;;;;;;;;5067454;28;20760;-71
2022/01/25 15:59:34;;;;;;;15.47;6.67;;;;;;;;;;5082971;28;20059;-72
2022/01/25 16:02:09;;;;;;;15.00;7.00;;;;;;;;;;5068812;28;20032;-73
2022/01/25 16:04:41;;;;;;;15.47;7.77;;;;;;;;;;5082404;28;20519;-73
2022/01/25 16:07:07;;;;;;;14.05;7.55;;;;;;;;;;5073044;28;20032;-72
2022/01/25 16:09:33;;;;;;;11.90;7.17;;;;;;;;;;5083499;28;20503;-72
2022/01/25 16:11:58;;;;;;;17.03;7.63;;;;;;;;;;5067643;28;20392;-72
2022/01/25 16:14:24;;;;;;;17.97;6.60;;;;;;;;;;5071105;28;20494;-73
2022/01/25 16:16:49;;;;;;;11.60;6.63;;;;;;;;;;5067153;28;20116;-72
2022/01/25 16:19:16;;;;;;;11.73;6.83;;;;;;;;;;5066213;28;20028;-71
2022/01/25 16:21:41;;;;;;;16.20;7.50;;;;;;;;;;5066837;28;20458;-72
2022/01/25 16:24:07;;;;;;;14.97;6.97;;;;;;;;;;5071242;28;20127;-73
2022/01/25 16:26:34;;;;;;;18.83;8.03;;;;;;;;;;5066185;28;20024;-72
2022/01/25 16:29:00;;;;;;;16.77;7.37;;;;;;;;;;5072185;28;20016;-72
2022/01/25 16:31:31;;;;;;;17.77;9.20;;;;;;;;;;5063442;28;20380;-73
2022/01/25 16:33:58;;;;;;;14.98;7.25;;;;;;;;;;5047494;28;20025;-75
2022/01/25 16:36:23;;;;;;;16.17;7.83;;;;;;;;;;5053553;28;20037;-73
2022/01/25 16:38:50;;;;;;;16.07;7.33;;;;;;;;;;5067204;28;20052;-72
2022/01/25 16:41:17;;;;;;;20.93;7.47;;;;;;;;;;5069154;28;20120;-73
2022/01/25 16:43:44;;;;;;;16.57;7.30;;;;;;;;;;5067268;28;20082;-72
2022/01/25 16:46:10;;;;;;;19.03;8.57;;;;;;;;;;5067757;28;20036;-72